Welcome, MN (56181)

5:12 PM CDT on August 04, 2015 (GMT -0500)
NuWay Coop - Welcome | | Change Station
CLOSE
Current Station
Personal Weather Station
Location: Welcome, MN
Elevation: 1224 ft
Nearby Weather Stations

Elev 1224 ft 43.67 °N, 94.61 °W | Updated 8 minutes ago

Clear
Clear
78.3 °F
Feels Like 79 °F
N
2.0
Wind Variable Wind from NE
Gusts 3.0 mph

Today
High -- | Low -- °F
--% Chance of Precip.
Yesterday
High -- | Low -- °F
Precip. -- in
6:10 AM 8:37 PM
Waning Gibbous, 74% visible
Pressure 30.00 in
Visibility 10.0 miles
Clouds Clear
Heat Index 79 °F
Dew Point 53 °F
Humidity 41%
Rainfall 0.00 in
Snow Depth Not available.
UV 5 out of 12
Pollen 6.30 out of 12
Air Quality Not available.
Flu Activity Not available.
METAR KFRM 042155Z AUTO 00000KT 10SM CLR 25/09 A3000 RMK AO1

More Conditions Fewer Conditions

Pressure 30.00 in
Visibility 10.0 miles
Clouds Clear
Heat Index 79 °F
Dew Point 53 °F
Humidity 41%
Rainfall 0.00 in
Snow Depth Not available.
UV 5 out of 12
Pollen 6.30 out of 12
Air Quality Not available.
Flu Activity Not available.
METAR KFRM 042155Z AUTO 00000KT 10SM CLR 25/09 A3000 RMK AO1

More Conditions Fewer Conditions

10-Day Weather Forecast

×

Almanac

Astronomy

Aug. 04, 2015 Rise Set
Actual Time
Civil Twilight
Nautical Twilight
Astronomical Twilight
Moon
Length of Visible Light
Length of Day
Tomorrow will be .
, % of the Moon is Illuminated

Today's Extremes

State Highs State Lows

Community

WunderPhotos

Upload Photos

1,844,002 photos uploaded!

WunderBlogs® & News

Nearby

Air Quality

  Air Quality AQ Index Pollutant
Not available.

Snow Depth

Station Depth Elevation

Earthquake Activity

City Distance Mag. Time & Date
Minimum magnitude displayed is 2.5.

Coastal Water Temperatures

Place Temperature

Stations

Nearby Weather Stations

Station Location Temp. Windchill Dew Point Humidity Wind Precip. Elev Updated Type